aviador You're here:

KLFI Decoded Metar

HAMPTON in VA, USA
Report Time2017-10-19 20:56:00
UTC Time2017-10-19 21:47:10
Flight Rules vfr VFR
Wind280° at 07 kt
W.Decomp.*RWY 26: 6.1 kt HW 3.5 kt RCW
W.Rank280° ranks 21
Current wind is below 280° avg. (7.0)
Visibility9999 m
Phenomena:N/A
Clouds:N/A
Expected CloudBase > 4,800 ft AGL from Temp-Dew spread
CeilingNone
Temp25°C (ISA +10)
Dew Point13°C (47% RH)
AAT23.4°C
QNH1022 hPa
Density Alt1,070 ft
Elevation10 ft
Report Wrong Elevation
Raw Report
KLFI 192056Z 28007KT 10SM CLR 25/13 A3017 RMK AO2A SLP233
T02500127=

Extra information for KLFI:More info

Metar Taf Metar & Taf Last 4 Metars F.Rules Stats Wind Profile Meteogram Temp Stats Airport Information Weather charts Add Link Nearby VenuesMetar ALERT Operation Metar Decoded Social comments

AIRNAV info for KLFI